createdAt,value
2019-04-14T00:00:44.938Z,100377.34
2019-04-14T00:03:34.941Z,100378.28
2019-04-14T00:06:07.609Z,100373.55
2019-04-14T00:08:39.486Z,100378.78
2019-04-14T00:11:11.129Z,100385.45
2019-04-14T00:13:43.513Z,100381.98
2019-04-14T00:16:16.530Z,100387.93
2019-04-14T00:18:49.093Z,100389.16
2019-04-14T00:21:21.533Z,100394.57
2019-04-14T00:23:54.367Z,100390.44
2019-04-14T00:26:29.318Z,100400.37
2019-04-14T00:29:02.518Z,100389.19
2019-04-14T00:31:34.926Z,100387.59
2019-04-14T00:34:25.288Z,100388.69
2019-04-14T00:37:01.339Z,100383.70
2019-04-14T00:39:46.950Z,100389.22
2019-04-14T00:42:21.796Z,100378.78
2019-04-14T00:44:55.941Z,100387.70
2019-04-14T00:47:29.170Z,100377.62
2019-04-14T00:50:01.651Z,100372.83
2019-04-14T00:52:34.039Z,100372.83
2019-04-14T00:55:07.631Z,100376.78
2019-04-14T00:57:39.817Z,100370.98
2019-04-14T01:00:12.795Z,100370.42
2019-04-14T01:02:45.253Z,100367.42
2019-04-14T01:05:19.597Z,100372.08
2019-04-14T01:07:52.344Z,100366.25
2019-04-14T01:10:25.925Z,100359.45
2019-04-14T01:13:00.529Z,100366.78
2019-04-14T01:15:46.686Z,100371.58
2019-04-14T01:18:09.969Z,100366.50
2019-04-14T01:20:42.747Z,100364.21
2019-04-14T01:23:15.200Z,100354.72
2019-04-14T01:25:47.730Z,100363.17
2019-04-14T01:28:20.127Z,100369.66
2019-04-14T01:30:52.304Z,100362.33
2019-04-14T01:33:31.484Z,100366.73
2019-04-14T01:36:11.079Z,100367.83
2019-04-14T01:38:51.281Z,100363.79
2019-04-14T01:41:23.926Z,100368.52
2019-04-14T01:43:56.054Z,100364.11
2019-04-14T01:46:29.978Z,100363.92
2019-04-14T01:49:01.038Z,100351.16
2019-04-14T01:51:35.196Z,100353.69
2019-04-14T01:54:17.862Z,100359.05
2019-04-14T01:56:58.111Z,100367.87
2019-04-14T01:59:33.004Z,100357.82
2019-04-14T02:02:07.534Z,100362.33
2019-04-14T02:04:40.411Z,100363.88
2019-04-14T02:07:12.323Z,100355.24
2019-04-14T02:09:46.866Z,100350.45
2019-04-14T02:12:19.214Z,100340.94
2019-04-14T02:14:51.653Z,100337.55
2019-04-14T02:17:24.200Z,100338.96
2019-04-14T02:19:56.780Z,100331.55
2019-04-14T02:22:29.097Z,100332.11
2019-04-14T02:25:01.431Z,100333.05
2019-04-14T02:27:34.474Z,100340.08
2019-04-14T02:30:10.161Z,100341.83
2019-04-14T02:33:11.040Z,100345.11
2019-04-14T02:35:50.602Z,100339.56
2019-04-14T02:38:29.127Z,100340.28
2019-04-14T02:40:56.047Z,100341.77
2019-04-14T02:43:30.243Z,100340.14
2019-04-14T02:51:10.830Z,100348.48
2019-04-14T03:01:27.019Z,100347.97
2019-04-14T03:03:50.672Z,100347.17
2019-04-14T03:06:18.074Z,100354.59
2019-04-14T03:09:04.477Z,100357.86
2019-04-14T03:14:07.587Z,100362.56
2019-04-14T03:17:05.673Z,100358.56
2019-04-14T03:19:27.269Z,100360.88
2019-04-14T03:22:12.284Z,100364.90
2019-04-14T03:24:31.610Z,100366.22
2019-04-14T03:27:13.533Z,100362.74
2019-04-14T03:30:05.059Z,100357.64
2019-04-14T03:35:07.973Z,100358.08
2019-04-14T03:40:08.453Z,100351.98
2019-04-14T03:45:14.409Z,100348.59
2019-04-14T03:47:46.027Z,100350.08
2019-04-14T03:52:59.620Z,100358.05
2019-04-14T03:55:16.047Z,100347.66
2019-04-14T03:57:34.569Z,100352.06
2019-04-14T04:00:07.479Z,100339.11
2019-04-14T04:02:49.830Z,100345.85
2019-04-14T04:05:41.309Z,100349.47
2019-04-14T04:08:13.647Z,100356.58
2019-04-14T04:10:48.948Z,100354.89
2019-04-14T04:13:21.579Z,100352.27
2019-04-14T04:15:58.335Z,100357.34
2019-04-14T04:18:44.219Z,100362.36
2019-04-14T04:21:20.540Z,100360.96
2019-04-14T04:24:06.525Z,100354.40
2019-04-14T04:26:45.148Z,100369.53
2019-04-14T04:29:33.243Z,100367.09
2019-04-14T04:32:12.221Z,100361.55
2019-04-14T04:34:51.245Z,100358.66
2019-04-14T04:37:41.261Z,100361.83
2019-04-14T04:40:15.968Z,100364.63
2019-04-14T04:42:48.855Z,100362.85
2019-04-14T04:45:25.689Z,100359.20
2019-04-14T04:48:00.224Z,100357.81
2019-04-14T04:50:37.027Z,100351.53
2019-04-14T04:53:15.767Z,100352.47
2019-04-14T04:55:50.739Z,100349.09
2019-04-14T04:58:28.318Z,100348.06
2019-04-14T05:01:05.668Z,100341.20
2019-04-14T05:03:41.142Z,100345.52
2019-04-14T05:06:51.008Z,100344.91
2019-04-14T05:09:36.696Z,100350.14
2019-04-14T05:12:32.637Z,100345.64
2019-04-14T05:15:24.757Z,100347.58
2019-04-14T05:17:56.526Z,100346.46
2019-04-14T05:20:29.204Z,100349.84
2019-04-14T05:23:01.852Z,100349.14
2019-04-14T05:25:34.137Z,100348.20
2019-04-14T05:28:06.988Z,100344.36
2019-04-14T05:30:41.667Z,100345.95
2019-04-14T05:33:14.147Z,100348.38
2019-04-14T05:35:46.690Z,100346.23
2019-04-14T05:38:26.806Z,100343.23
2019-04-14T05:41:04.736Z,100340.61
2019-04-14T05:43:46.699Z,100343.13
2019-04-14T05:46:25.253Z,100339.38
2019-04-14T05:49:04.976Z,100340.84
2019-04-14T05:51:37.236Z,100344.22
2019-04-14T05:54:10.723Z,100337.41
2019-04-14T05:56:43.144Z,100336.58
2019-04-14T05:59:15.616Z,100331.55
2019-04-14T06:01:49.632Z,100338.53
2019-04-14T06:04:22.454Z,100340.83
2019-04-14T06:06:54.598Z,100340.12
2019-04-14T06:09:31.845Z,100349.23
2019-04-14T06:12:03.571Z,100354.30
2019-04-14T06:14:35.621Z,100346.33
2019-04-14T06:17:07.281Z,100342.67
2019-04-14T06:19:40.635Z,100347.17
2019-04-14T06:22:12.214Z,100344.08
2019-04-14T06:24:44.646Z,100347.92
2019-04-14T06:27:16.214Z,100346.84
2019-04-14T06:29:49.666Z,100342.55
2019-04-14T06:32:36.208Z,100346.91
2019-04-14T06:35:12.093Z,100348.94
2019-04-14T06:37:51.198Z,100354.42
2019-04-14T06:40:24.390Z,100351.23
2019-04-14T06:42:57.440Z,100361.22
2019-04-14T06:45:29.490Z,100359.72
2019-04-14T06:48:02.267Z,100362.22
2019-04-14T06:50:34.226Z,100365.00
2019-04-14T06:53:07.221Z,100358.18
2019-04-14T06:55:40.157Z,100359.78
2019-04-14T06:58:16.063Z,100352.95
2019-04-14T07:00:48.822Z,100353.95
2019-04-14T07:03:21.988Z,100354.08
2019-04-14T07:05:54.477Z,100358.72
2019-04-14T07:08:29.938Z,100353.27
2019-04-14T07:11:01.772Z,100356.02
2019-04-14T07:13:34.677Z,100355.83
2019-04-14T07:16:06.257Z,100355.55
2019-04-14T07:18:38.908Z,100354.14
2019-04-14T07:21:12.765Z,100354.55
2019-04-14T07:23:47.150Z,100353.72
2019-04-14T07:26:17.733Z,100358.23
2019-04-14T07:28:58.505Z,100348.93
2019-04-14T07:31:48.604Z,100347.54
2019-04-14T07:34:43.628Z,100351.91
2019-04-14T07:37:40.768Z,100351.00
2019-04-14T07:40:26.331Z,100341.04
2019-04-14T07:43:32.803Z,100334.64
2019-04-14T07:46:26.351Z,100338.92
2019-04-14T07:49:13.513Z,100336.13
2019-04-14T07:52:02.627Z,100325.92
2019-04-14T07:54:48.612Z,100333.15
2019-04-14T07:57:52.233Z,100330.83
2019-04-14T08:00:39.587Z,100341.44
2019-04-14T08:03:29.179Z,100338.39
2019-04-14T08:06:01.231Z,100335.20
2019-04-14T08:08:34.219Z,100341.48
2019-04-14T08:11:07.647Z,100330.87
2019-04-14T08:13:40.643Z,100331.91
2019-04-14T08:16:15.372Z,100338.66
2019-04-14T08:18:47.871Z,100332.34
2019-04-14T08:21:29.602Z,100338.36
2019-04-14T08:24:01.186Z,100337.42
2019-04-14T08:26:38.366Z,100337.42
2019-04-14T08:29:10.005Z,100335.75
2019-04-14T08:31:41.663Z,100332.93
2019-04-14T08:34:13.256Z,100338.39
2019-04-14T08:36:55.200Z,100328.17
2019-04-14T08:39:23.045Z,100330.73
2019-04-14T08:42:01.901Z,100331.86
2019-04-14T08:44:49.246Z,100328.59
2019-04-14T08:47:30.020Z,100329.80
2019-04-14T08:50:18.984Z,100329.23
2019-04-14T08:52:57.588Z,100335.80
2019-04-14T08:55:34.160Z,100332.45
2019-04-14T08:58:13.501Z,100333.00
2019-04-14T09:01:01.677Z,100335.63
2019-04-14T09:03:47.643Z,100333.15
2019-04-14T09:06:20.832Z,100338.04
2019-04-14T09:08:56.968Z,100331.28
2019-04-14T09:11:34.254Z,100334.07
2019-04-14T09:14:05.855Z,100330.12
2019-04-14T09:16:38.884Z,100333.70
2019-04-14T09:19:10.365Z,100340.75
2019-04-14T09:21:43.735Z,100328.65
2019-04-14T09:24:16.499Z,100326.02
2019-04-14T09:26:48.346Z,100321.16
2019-04-14T09:29:20.079Z,100318.23
2019-04-14T09:31:52.916Z,100323.23
2019-04-14T09:34:28.577Z,100313.25
2019-04-14T09:37:02.577Z,100302.83
2019-04-14T09:39:34.148Z,100298.41
2019-04-14T09:42:05.753Z,100289.81
2019-04-14T09:44:43.286Z,100292.77
2019-04-14T09:47:15.842Z,100294.58
2019-04-14T09:49:53.866Z,100299.19
2019-04-14T09:52:35.882Z,100301.39
2019-04-14T09:55:13.423Z,100308.34
2019-04-14T09:57:44.971Z,100308.53
2019-04-14T10:00:18.474Z,100309.28
2019-04-14T10:02:52.120Z,100316.08
2019-04-14T10:05:23.901Z,100308.08
2019-04-14T10:07:55.468Z,100306.86
2019-04-14T10:10:27.351Z,100309.30
2019-04-14T10:12:58.945Z,100309.97
2019-04-14T10:15:32.024Z,100301.66
2019-04-14T10:18:03.648Z,100309.56
2019-04-14T10:20:35.866Z,100304.98
2019-04-14T10:23:09.674Z,100303.84
2019-04-14T10:25:43.147Z,100310.05
2019-04-14T10:28:15.238Z,100304.78
2019-04-14T10:30:48.233Z,100304.41
2019-04-14T10:33:19.997Z,100318.33
2019-04-14T10:35:53.131Z,100306.64
2019-04-14T10:38:25.176Z,100309.48
2019-04-14T10:40:56.897Z,100311.55
2019-04-14T10:43:28.703Z,100305.16
2019-04-14T10:46:00.502Z,100313.33
2019-04-14T10:48:43.175Z,100304.69
2019-04-14T10:51:29.908Z,100308.91
2019-04-14T10:53:58.950Z,100312.02
2019-04-14T10:56:30.284Z,100315.80
2019-04-14T10:59:03.412Z,100308.53
2019-04-14T11:01:35.531Z,100309.67
2019-04-14T11:04:08.113Z,100312.48
2019-04-14T11:06:44.426Z,100316.06
2019-04-14T11:09:18.439Z,100314.95
2019-04-14T11:11:51.316Z,100312.71
2019-04-14T11:14:28.571Z,100311.56
2019-04-14T11:17:01.676Z,100305.70
2019-04-14T11:19:37.908Z,100310.75
2019-04-14T11:22:30.242Z,100310.81
2019-04-14T11:25:21.539Z,100315.13
2019-04-14T11:27:55.679Z,100317.80
2019-04-14T11:30:31.548Z,100316.62
2019-04-14T11:33:12.078Z,100309.60
2019-04-14T11:35:49.315Z,100311.66
2019-04-14T11:38:35.089Z,100308.55
2019-04-14T11:41:14.999Z,100314.19
2019-04-14T11:43:51.032Z,100303.73
2019-04-14T11:46:37.581Z,100298.59
2019-04-14T11:49:15.457Z,100299.91
2019-04-14T11:52:01.713Z,100288.12
2019-04-14T11:54:50.097Z,100296.22
2019-04-14T11:57:17.826Z,100294.63
2019-04-14T12:00:10.650Z,100298.02
2019-04-14T12:02:50.715Z,100294.64
2019-04-14T12:05:44.240Z,100293.67
2019-04-14T12:08:20.220Z,100290.38
2019-04-14T12:11:09.727Z,100284.47
2019-04-14T12:13:48.990Z,100284.09
2019-04-14T12:16:22.771Z,100284.09
2019-04-14T12:18:56.985Z,100282.19
2019-04-14T12:21:28.659Z,100283.67
2019-04-14T12:24:00.343Z,100273.98
2019-04-14T12:26:32.366Z,100276.66
2019-04-14T12:29:06.647Z,100271.29
2019-04-14T12:31:39.410Z,100276.64
2019-04-14T12:34:13.788Z,100282.38
2019-04-14T12:36:51.284Z,100280.80
2019-04-14T12:39:27.467Z,100274.48
2019-04-14T12:42:15.677Z,100273.16
2019-04-14T12:44:52.143Z,100269.21
2019-04-14T12:50:41.328Z,100273.55
2019-04-14T12:53:15.514Z,100280.88
2019-04-14T12:55:47.135Z,100272.03
2019-04-14T12:58:20.286Z,100274.66
2019-04-14T13:00:58.662Z,100270.23
2019-04-14T13:03:31.749Z,100270.92
2019-04-14T13:06:16.459Z,100268.34
2019-04-14T13:08:54.805Z,100271.92
2019-04-14T13:11:47.380Z,100274.76
2019-04-14T13:14:21.927Z,100267.33
2019-04-14T13:17:11.523Z,100265.90
2019-04-14T13:19:53.118Z,100270.97
2019-04-14T13:22:34.253Z,100273.21
2019-04-14T13:25:14.334Z,100276.22
2019-04-14T13:27:49.807Z,100269.00
2019-04-14T13:30:27.652Z,100260.51
2019-04-14T13:33:00.434Z,100273.59
2019-04-14T13:35:32.723Z,100263.73
2019-04-14T13:38:06.194Z,100267.13
2019-04-14T13:40:40.186Z,100260.91
2019-04-14T13:43:13.446Z,100260.16
2019-04-14T13:45:46.607Z,100258.16
2019-04-14T13:48:21.073Z,100258.27
2019-04-14T13:50:55.186Z,100249.98
2019-04-14T13:53:27.343Z,100246.98
2019-04-14T13:55:59.175Z,100251.41
2019-04-14T13:58:30.768Z,100254.15
2019-04-14T14:01:02.486Z,100254.52
2019-04-14T14:03:35.311Z,100247.92
2019-04-14T14:06:07.133Z,100251.88
2019-04-14T14:08:42.720Z,100252.73
2019-04-14T14:11:16.474Z,100244.73
2019-04-14T14:14:02.012Z,100243.98
2019-04-14T14:16:38.395Z,100243.52
2019-04-14T14:19:20.391Z,100245.52
2019-04-14T14:21:54.796Z,100241.73
2019-04-14T14:24:33.979Z,100239.47
2019-04-14T14:27:07.111Z,100231.20
2019-04-14T14:29:39.441Z,100235.70
2019-04-14T14:32:16.734Z,100240.89
2019-04-14T14:34:51.166Z,100238.73
2019-04-14T14:37:22.760Z,100235.50
2019-04-14T14:39:54.353Z,100226.86
2019-04-14T14:42:26.302Z,100234.02
2019-04-14T14:45:16.376Z,100235.34
2019-04-14T14:47:49.663Z,100234.97
2019-04-14T14:50:23.553Z,100228.97
2019-04-14T14:52:57.110Z,100227.17
2019-04-14T14:55:31.873Z,100229.44
2019-04-14T14:58:06.138Z,100230.45
2019-04-14T15:00:48.953Z,100223.87
2019-04-14T15:03:28.177Z,100223.13
2019-04-14T15:06:05.200Z,100216.55
2019-04-14T15:08:39.777Z,100222.76
2019-04-14T15:11:14.156Z,100220.59
2019-04-14T15:14:22.707Z,100219.28
2019-04-14T15:17:01.228Z,100223.13
2019-04-14T15:19:34.749Z,100217.48
2019-04-14T15:22:06.366Z,100214.12
2019-04-14T15:24:39.429Z,100220.03
2019-04-14T15:27:11.045Z,100211.86
2019-04-14T15:29:42.652Z,100213.18
2019-04-14T15:32:15.070Z,100209.34
2019-04-14T15:34:50.301Z,100213.36
2019-04-14T15:37:22.301Z,100214.67
2019-04-14T15:39:53.909Z,100224.47
2019-04-14T15:42:26.381Z,100220.14
2019-04-14T15:45:00.927Z,100213.66
2019-04-14T15:47:33.837Z,100222.61
2019-04-14T15:50:10.005Z,100223.16
2019-04-14T15:52:40.889Z,100225.05
2019-04-14T15:55:17.517Z,100226.56
2019-04-14T15:58:04.473Z,100230.14
2019-04-14T16:00:43.211Z,100229.20
2019-04-14T16:03:24.114Z,100227.88
2019-04-14T16:06:18.480Z,100226.09
2019-04-14T16:08:58.292Z,100231.09
2019-04-14T16:11:49.193Z,100227.61
2019-04-14T16:14:30.692Z,100228.25
2019-04-14T16:17:14.964Z,100234.35
2019-04-14T16:19:49.273Z,100229.02
2019-04-14T16:22:22.352Z,100230.97
2019-04-14T16:24:54.114Z,100228.07
2019-04-14T16:27:31.065Z,100230.90
2019-04-14T16:30:07.237Z,100232.31
2019-04-14T16:32:52.848Z,100230.13
2019-04-14T16:35:27.713Z,100232.11
2019-04-14T16:38:04.855Z,100226.20
2019-04-14T16:45:34.833Z,100231.81
2019-04-14T16:48:08.428Z,100234.07
2019-04-14T16:50:40.970Z,100238.55
2019-04-14T16:53:28.916Z,100245.33
2019-04-14T16:56:02.129Z,100238.28
2019-04-14T16:58:38.429Z,100242.52
2019-04-14T17:01:17.918Z,100247.48
2019-04-14T17:03:55.345Z,100247.58
2019-04-14T17:06:31.014Z,100247.21
2019-04-14T17:09:03.391Z,100246.73
2019-04-14T17:11:36.657Z,100245.42
2019-04-14T17:14:20.786Z,100246.73
2019-04-14T17:16:54.137Z,100248.05
2019-04-14T17:19:30.299Z,100256.41
2019-04-14T17:22:06.423Z,100249.47
2019-04-14T17:24:56.174Z,100249.25
2019-04-14T17:27:35.263Z,100255.27
2019-04-14T17:30:34.432Z,100266.42
2019-04-14T17:33:14.022Z,100259.20
2019-04-14T17:35:57.340Z,100271.59
2019-04-14T17:38:36.176Z,100266.12
2019-04-14T17:41:21.805Z,100267.05
2019-04-14T17:44:11.831Z,100270.63
2019-04-14T17:46:47.727Z,100273.41
2019-04-14T17:49:25.569Z,100268.81
2019-04-14T17:52:29.021Z,100267.59
2019-04-14T17:55:06.343Z,100269.28
2019-04-14T17:57:56.190Z,100264.69
2019-04-14T18:00:48.124Z,100273.41
2019-04-14T18:03:36.090Z,100264.74
2019-04-14T18:06:11.957Z,100267.37
2019-04-14T18:08:57.615Z,100263.05
2019-04-14T18:11:33.443Z,100265.12
2019-04-14T18:14:09.554Z,100279.95
2019-04-14T18:16:48.894Z,100273.91
2019-04-14T18:19:22.386Z,100263.02
2019-04-14T18:21:56.146Z,100274.00
2019-04-14T18:24:41.283Z,100266.97
2019-04-14T18:27:02.910Z,100260.58
2019-04-14T18:29:40.044Z,100267.72
2019-04-14T18:32:14.860Z,100271.81
2019-04-14T18:35:08.300Z,100267.12
2019-04-14T18:37:43.758Z,100265.98
2019-04-14T18:40:17.022Z,100262.30
2019-04-14T18:42:55.387Z,100263.88
2019-04-14T18:45:33.120Z,100261.59
2019-04-14T18:48:09.355Z,100266.16
2019-04-14T18:50:43.444Z,100257.77
2019-04-14T18:53:26.022Z,100254.34
2019-04-14T18:56:05.769Z,100256.22
2019-04-14T18:58:41.893Z,100254.33
2019-04-14T19:01:28.367Z,100261.80
2019-04-14T19:04:03.466Z,100249.79
2019-04-14T19:06:38.113Z,100259.22
2019-04-14T19:09:15.623Z,100261.36
2019-04-14T19:14:23.241Z,100255.21
2019-04-14T19:17:00.758Z,100242.61
2019-04-14T19:22:02.894Z,100250.75
2019-04-14T19:24:36.256Z,100248.92
2019-04-14T19:27:12.041Z,100249.19
2019-04-14T19:29:46.466Z,100248.39
2019-04-14T19:32:20.908Z,100248.80
2019-04-14T19:34:52.383Z,100248.89
2019-04-14T19:37:24.484Z,100241.51
2019-04-14T19:39:55.975Z,100251.01
2019-04-14T19:42:28.429Z,100262.05
2019-04-14T19:45:00.393Z,100258.44
2019-04-14T19:47:37.475Z,100248.75
2019-04-14T19:50:10.133Z,100254.30
2019-04-14T19:52:41.829Z,100247.50
2019-04-14T19:55:20.696Z,100254.70
2019-04-14T19:57:51.722Z,100251.45
2019-04-14T20:00:23.316Z,100251.70
2019-04-14T20:02:56.810Z,100260.72
2019-04-14T20:05:28.984Z,100261.48
2019-04-14T20:08:00.521Z,100265.66
2019-04-14T20:10:32.275Z,100263.64
2019-04-14T20:13:03.998Z,100252.86
2019-04-14T20:15:49.063Z,100264.82
2019-04-14T20:18:38.640Z,100262.20
2019-04-14T20:21:28.000Z,100258.65
2019-04-14T20:24:18.766Z,100265.66
2019-04-14T20:26:55.751Z,100255.65
2019-04-14T20:29:37.997Z,100260.17
2019-04-14T20:32:19.919Z,100261.19
2019-04-14T20:34:52.737Z,100265.50
2019-04-14T20:37:26.796Z,100263.89
2019-04-14T20:39:58.404Z,100261.19
2019-04-14T20:42:31.279Z,100257.64
2019-04-14T20:45:04.926Z,100261.19
2019-04-14T20:47:36.603Z,100263.89
2019-04-14T20:50:08.506Z,100267.73
2019-04-14T20:52:41.171Z,100265.23
2019-04-14T20:55:12.897Z,100260.84
2019-04-14T20:57:45.610Z,100269.25
2019-04-14T21:00:20.748Z,100260.08
2019-04-14T21:02:58.666Z,100269.03
2019-04-14T21:05:47.168Z,100265.23
2019-04-14T21:08:39.435Z,100270.00
2019-04-14T21:11:15.325Z,100265.23
2019-04-14T21:13:51.816Z,100265.23
2019-04-14T21:16:25.965Z,100267.47
2019-04-14T21:19:02.191Z,100265.77
2019-04-14T21:21:45.916Z,100267.33
2019-04-14T21:24:35.217Z,100276.54
2019-04-14T21:27:14.044Z,100274.92
2019-04-14T21:30:00.489Z,100275.29
2019-04-14T21:32:34.858Z,100273.75
2019-04-14T21:35:11.066Z,100278.27
2019-04-14T21:37:53.312Z,100277.50
2019-04-14T21:40:26.951Z,100263.95
2019-04-14T21:42:56.364Z,100269.27
2019-04-14T21:45:27.943Z,100260.69
2019-04-14T21:47:59.589Z,100255.61
2019-04-14T21:50:33.025Z,100241.36
2019-04-14T21:53:06.200Z,100239.12
2019-04-14T21:55:37.816Z,100237.05
2019-04-14T21:58:11.426Z,100238.48
2019-04-14T22:01:09.657Z,100229.61
2019-04-14T22:03:47.401Z,100227.14
2019-04-14T22:06:20.598Z,100232.77
2019-04-14T22:08:56.280Z,100244.00
2019-04-14T22:11:29.550Z,100236.41
2019-04-14T22:14:01.176Z,100232.10
2019-04-14T22:16:32.898Z,100233.15
2019-04-14T22:19:04.558Z,100235.92
2019-04-14T22:21:49.221Z,100221.27
2019-04-14T22:24:19.965Z,100230.05
2019-04-14T22:26:51.515Z,100231.89
2019-04-14T22:29:25.753Z,100237.67
2019-04-14T22:31:57.341Z,100226.66
2019-04-14T22:34:31.749Z,100227.97
2019-04-14T22:37:03.299Z,100232.05
2019-04-14T22:39:35.041Z,100221.97
2019-04-14T22:42:06.616Z,100230.73
2019-04-14T22:44:40.968Z,100219.94
2019-04-14T22:47:12.662Z,100223.86
2019-04-14T22:49:44.285Z,100227.09
2019-04-14T22:52:18.910Z,100224.52
2019-04-14T22:54:52.046Z,100227.22
2019-04-14T22:57:25.212Z,100217.25
2019-04-14T22:59:56.855Z,100219.56
2019-04-14T23:02:42.224Z,100211.64
2019-04-14T23:05:27.236Z,100213.48
2019-04-14T23:08:19.405Z,100217.95
2019-04-14T23:11:01.833Z,100207.09
2019-04-14T23:13:40.929Z,100194.59
2019-04-14T23:16:26.662Z,100200.75
2019-04-14T23:19:08.820Z,100195.14
2019-04-14T23:21:44.441Z,100198.30
2019-04-14T23:24:17.692Z,100203.14
2019-04-14T23:26:52.866Z,100193.14
2019-04-14T23:29:25.511Z,100194.56
2019-04-14T23:31:57.385Z,100206.48
2019-04-14T23:34:29.206Z,100199.10
2019-04-14T23:37:00.813Z,100204.64
2019-04-14T23:39:32.470Z,100199.95
2019-04-14T23:42:04.057Z,100191.64
2019-04-14T23:44:35.614Z,100188.64
2019-04-14T23:47:07.858Z,100189.56
2019-04-14T23:49:39.527Z,100196.69
2019-04-14T23:52:13.747Z,100191.53
2019-04-14T23:54:45.546Z,100185.45
2019-04-14T23:57:17.226Z,100187.14
2019-04-14T23:59:48.866Z,100188.98
